Terminal Aerodrome Forecast
Issued by NWS

Home | Current Version | Previous Version | Text Only | Print | Product List | Glossary On
Versions: 1 2 3 4 5 6 7 8 9 10 11 12 13 14 15 16 17 18 19 20 21 22 23 24
000
FTUS46 KSGX 210226 AAA
TAFSAN
TAF AMD
KSAN 210226Z 2102/2206 29013G20KT 5SM -SHRA FEW014 BKN030 BKN040
     FM210400 27013G23KT P6SM VCSH SCT025 BKN030
     FM211500 28011G18KT P6SM BKN035
     FM212100 27005KT P6SM BKN035=

USA.gov is the U.S. government's official web portal to all federal, state and local government web resources and services.